Strona główna
METAR-TAF:

METAR-TAF

Lotnisko :

Port lotniczy Helsinki-Vantaa

Helsinki, Finlandia

Szerokość geograficzna: 60-19N, Długość geograficzna: 024-58E, wysokość: 51 m

Aktualna obserwacja pogody

Raport powstał 48 minut temu, godzina 14:20 UTC
Wiatr 15 kt od zachodnio-północny zachód
Temperatura 21°C
Wilgotność 35%
Ciśnienie 1011 hPa
Widzialność 10 km lub więcej
Brak chmur poniżej 1500 m i brak chmur cumulonimbus

METAR: EFHK 211420Z 29015KT CAVOK 21/05 Q1011 NOSIG

czas: 18:08 (15:08 UTC)

Prognoza

Raport powstał 39 minut temu, godzina 14:29 UTC
Prognoza ważna od 21 godzina 15 UTC do 22 godzina 15 UTC
Wiatr 15 kt od zachodnio-północny zachód
Widzialność 10 km lub więcej
Brak chmur poniżej 1500 m i brak chmur cumulonimbus
Stopniowe zmiany
od 21 godzina 20 UTC do 21 godzina 22 UTC
Wiatr 5 kt od północny zachód
Stopniowe zmiany
od 22 godzina 10 UTC do 22 godzina 12 UTC
Wiatr 10 kt od południowo-południowy zachód

TAF: EFHK 211429Z 2115/2215 30015KT CAVOK BECMG 2120/2122 31005KT BECMG 2210/2212 20010KT

Obserwacja i prognoza pogody dla ponad 4000 lotnisk (raport METAR i TAF).

Dostępne stacje oznaczono żółtymi i czerwonymi punktami na mapie.

Najedź kursorem aby zobaczyć nazwę stacji.

Kliknij aby zobaczyć obserwacje i prognozy pogody.

Aby zmienić mapę: kliknij na zielony przycisk z czarnym krzyżykiem, aby powiększyć; na zielony przycisk z myślnikiem, aby pomniejszyć; na zielone strzałki, aby przejść do map sąsiednich.


METAR-TAF: